sensor_id;sensor_type;location;lat;lon;timestamp;pressure;altitude;pressure_sealevel;temperature;humidity
46682;BME280;34101;53.430;-2.224;2023-04-06T00:00:59;100794.20;;;11.45;81.57
46682;BME280;34101;53.430;-2.224;2023-04-06T00:03:26;100793.58;;;11.55;81.58
46682;BME280;34101;53.430;-2.224;2023-04-06T00:05:54;100790.89;;;11.54;81.18
46682;BME280;34101;53.430;-2.224;2023-04-06T00:08:21;100789.70;;;11.52;81.55
46682;BME280;34101;53.430;-2.224;2023-04-06T00:10:48;100791.23;;;11.56;81.69
46682;BME280;34101;53.430;-2.224;2023-04-06T00:13:16;100786.11;;;11.45;81.62
46682;BME280;34101;53.430;-2.224;2023-04-06T00:15:43;100781.20;;;11.46;82.12
46682;BME280;34101;53.430;-2.224;2023-04-06T00:18:11;100777.49;;;11.27;82.23
46682;BME280;34101;53.430;-2.224;2023-04-06T00:20:39;100773.75;;;11.05;82.99
46682;BME280;34101;53.430;-2.224;2023-04-06T00:23:08;100769.46;;;11.28;82.90
46682;BME280;34101;53.430;-2.224;2023-04-06T00:25:35;100772.78;;;11.39;82.81
46682;BME280;34101;53.430;-2.224;2023-04-06T00:28:03;100764.02;;;11.34;82.59
46682;BME280;34101;53.430;-2.224;2023-04-06T00:30:35;100763.12;;;11.12;83.11
46682;BME280;34101;53.430;-2.224;2023-04-06T00:33:03;100760.34;;;11.22;83.13
46682;BME280;34101;53.430;-2.224;2023-04-06T00:35:30;100760.16;;;11.31;82.66
46682;BME280;34101;53.430;-2.224;2023-04-06T00:37:59;100755.98;;;11.34;82.84
46682;BME280;34101;53.430;-2.224;2023-04-06T00:40:26;100756.49;;;11.29;82.76
46682;BME280;34101;53.430;-2.224;2023-04-06T00:42:54;100753.01;;;11.31;82.53
46682;BME280;34101;53.430;-2.224;2023-04-06T00:45:27;100751.60;;;11.31;82.85
46682;BME280;34101;53.430;-2.224;2023-04-06T00:47:56;100748.03;;;11.08;82.82
46682;BME280;34101;53.430;-2.224;2023-04-06T00:50:23;100745.97;;;11.18;83.40
46682;BME280;34101;53.430;-2.224;2023-04-06T00:52:51;100741.10;;;11.28;83.15
46682;BME280;34101;53.430;-2.224;2023-04-06T00:55:18;100739.55;;;11.35;83.00
46682;BME280;34101;53.430;-2.224;2023-04-06T00:57:46;100736.82;;;11.35;82.89
46682;BME280;34101;53.430;-2.224;2023-04-06T01:00:15;100732.59;;;11.36;83.05
46682;BME280;34101;53.430;-2.224;2023-04-06T01:02:43;100731.36;;;11.42;82.78
46682;BME280;34101;53.430;-2.224;2023-04-06T01:05:11;100723.29;;;11.38;82.99
46682;BME280;34101;53.430;-2.224;2023-04-06T01:07:41;100719.89;;;11.38;82.82
46682;BME280;34101;53.430;-2.224;2023-04-06T01:10:23;100712.07;;;11.41;82.90
46682;BME280;34101;53.430;-2.224;2023-04-06T01:12:51;100711.29;;;11.41;82.74
46682;BME280;34101;53.430;-2.224;2023-04-06T01:15:19;100709.54;;;11.40;82.51
46682;BME280;34101;53.430;-2.224;2023-04-06T01:17:52;100710.22;;;11.43;82.59
46682;BME280;34101;53.430;-2.224;2023-04-06T01:20:20;100705.82;;;11.48;82.74
46682;BME280;34101;53.430;-2.224;2023-04-06T01:22:48;100705.15;;;11.51;82.36
46682;BME280;34101;53.430;-2.224;2023-04-06T01:25:16;100705.65;;;11.34;81.94
46682;BME280;34101;53.430;-2.224;2023-04-06T01:27:44;100705.96;;;11.43;82.41
46682;BME280;34101;53.430;-2.224;2023-04-06T01:30:13;100703.67;;;11.50;81.98
46682;BME280;34101;53.430;-2.224;2023-04-06T01:32:41;100703.18;;;11.45;82.52
46682;BME280;34101;53.430;-2.224;2023-04-06T01:35:10;100698.11;;;11.49;82.55
46682;BME280;34101;53.430;-2.224;2023-04-06T01:37:38;100695.24;;;11.55;82.12
46682;BME280;34101;53.430;-2.224;2023-04-06T01:40:07;100697.39;;;11.51;82.28
46682;BME280;34101;53.430;-2.224;2023-04-06T01:42:34;100694.26;;;11.57;82.05
46682;BME280;34101;53.430;-2.224;2023-04-06T01:45:02;100691.64;;;11.60;82.42
46682;BME280;34101;53.430;-2.224;2023-04-06T01:47:30;100693.23;;;11.63;82.01
46682;BME280;34101;53.430;-2.224;2023-04-06T01:49:56;100695.79;;;11.40;82.27
46682;BME280;34101;53.430;-2.224;2023-04-06T01:52:24;100691.95;;;11.47;82.40
46682;BME280;34101;53.430;-2.224;2023-04-06T01:54:52;100692.70;;;11.14;83.79
46682;BME280;34101;53.430;-2.224;2023-04-06T01:57:19;100692.21;;;11.09;84.20
46682;BME280;34101;53.430;-2.224;2023-04-06T01:59:48;100688.19;;;11.02;84.85
46682;BME280;34101;53.430;-2.224;2023-04-06T02:02:16;100683.41;;;11.24;84.43
46682;BME280;34101;53.430;-2.224;2023-04-06T02:04:47;100678.63;;;11.28;84.31
46682;BME280;34101;53.430;-2.224;2023-04-06T02:07:16;100678.04;;;11.42;83.91
46682;BME280;34101;53.430;-2.224;2023-04-06T02:09:44;100675.78;;;11.47;83.39
46682;BME280;34101;53.430;-2.224;2023-04-06T02:12:11;100675.46;;;11.35;83.55
46682;BME280;34101;53.430;-2.224;2023-04-06T02:14:40;100676.65;;;11.28;84.11
46682;BME280;34101;53.430;-2.224;2023-04-06T02:17:08;100673.30;;;11.42;84.05
46682;BME280;34101;53.430;-2.224;2023-04-06T02:19:41;100674.79;;;11.28;83.96
46682;BME280;34101;53.430;-2.224;2023-04-06T02:22:09;100672.35;;;11.21;84.14
46682;BME280;34101;53.430;-2.224;2023-04-06T02:24:37;100668.54;;;11.38;83.91
46682;BME280;34101;53.430;-2.224;2023-04-06T02:27:05;100667.00;;;11.26;84.59
46682;BME280;34101;53.430;-2.224;2023-04-06T02:29:33;100663.23;;;11.39;84.15
46682;BME280;34101;53.430;-2.224;2023-04-06T02:32:04;100660.26;;;11.47;83.62
46682;BME280;34101;53.430;-2.224;2023-04-06T02:34:37;100653.78;;;11.44;83.54
46682;BME280;34101;53.430;-2.224;2023-04-06T02:37:04;100652.31;;;11.49;83.58
46682;BME280;34101;53.430;-2.224;2023-04-06T02:39:35;100652.06;;;11.50;83.46
46682;BME280;34101;53.430;-2.224;2023-04-06T02:42:04;100649.39;;;11.59;83.56
46682;BME280;34101;53.430;-2.224;2023-04-06T02:44:32;100646.54;;;11.58;83.21
46682;BME280;34101;53.430;-2.224;2023-04-06T02:47:03;100642.55;;;11.58;83.69
46682;BME280;34101;53.430;-2.224;2023-04-06T02:49:31;100639.59;;;11.62;82.83
46682;BME280;34101;53.430;-2.224;2023-04-06T02:51:58;100639.27;;;11.58;83.10
46682;BME280;34101;53.430;-2.224;2023-04-06T02:54:27;100634.99;;;11.51;83.12
46682;BME280;34101;53.430;-2.224;2023-04-06T02:56:54;100631.92;;;11.49;83.92
46682;BME280;34101;53.430;-2.224;2023-04-06T02:59:21;100630.22;;;11.41;83.62
46682;BME280;34101;53.430;-2.224;2023-04-06T03:01:48;100626.56;;;11.33;83.93
46682;BME280;34101;53.430;-2.224;2023-04-06T03:04:16;100621.96;;;11.44;84.31
46682;BME280;34101;53.430;-2.224;2023-04-06T03:06:44;100621.85;;;11.33;84.83
46682;BME280;34101;53.430;-2.224;2023-04-06T03:09:16;100621.00;;;11.50;84.41
46682;BME280;34101;53.430;-2.224;2023-04-06T03:11:44;100621.63;;;11.66;83.60
46682;BME280;34101;53.430;-2.224;2023-04-06T03:14:12;100619.26;;;11.72;83.73
46682;BME280;34101;53.430;-2.224;2023-04-06T03:16:40;100620.84;;;11.80;83.36
46682;BME280;34101;53.430;-2.224;2023-04-06T03:19:08;100616.73;;;11.74;82.83
46682;BME280;34101;53.430;-2.224;2023-04-06T03:21:36;100614.96;;;11.56;84.38
46682;BME280;34101;53.430;-2.224;2023-04-06T03:24:04;100614.27;;;11.80;83.12
46682;BME280;34101;53.430;-2.224;2023-04-06T03:26:31;100610.54;;;11.75;83.45
46682;BME280;34101;53.430;-2.224;2023-04-06T03:28:59;100607.49;;;11.57;83.60
46682;BME280;34101;53.430;-2.224;2023-04-06T03:31:26;100608.16;;;11.63;83.73
46682;BME280;34101;53.430;-2.224;2023-04-06T03:33:54;100605.85;;;11.76;83.33
46682;BME280;34101;53.430;-2.224;2023-04-06T03:36:22;100600.93;;;11.58;83.92
46682;BME280;34101;53.430;-2.224;2023-04-06T03:38:50;100598.05;;;11.64;83.98
46682;BME280;34101;53.430;-2.224;2023-04-06T03:41:20;100591.86;;;11.64;84.35
46682;BME280;34101;53.430;-2.224;2023-04-06T03:43:48;100581.94;;;11.74;84.02
46682;BME280;34101;53.430;-2.224;2023-04-06T03:46:16;100579.61;;;11.83;82.93
46682;BME280;34101;53.430;-2.224;2023-04-06T03:48:43;100576.25;;;11.30;84.42
46682;BME280;34101;53.430;-2.224;2023-04-06T03:51:11;100571.51;;;11.70;83.53
46682;BME280;34101;53.430;-2.224;2023-04-06T03:53:38;100569.24;;;11.72;83.72
46682;BME280;34101;53.430;-2.224;2023-04-06T03:56:06;100570.24;;;11.91;83.47
46682;BME280;34101;53.430;-2.224;2023-04-06T03:58:33;100569.61;;;11.94;83.07
46682;BME280;34101;53.430;-2.224;2023-04-06T04:01:00;100567.30;;;12.04;82.67
46682;BME280;34101;53.430;-2.224;2023-04-06T04:03:28;100564.46;;;12.08;82.78
46682;BME280;34101;53.430;-2.224;2023-04-06T04:05:55;100569.69;;;12.18;82.52
46682;BME280;34101;53.430;-2.224;2023-04-06T04:08:23;100567.71;;;12.20;81.88
46682;BME280;34101;53.430;-2.224;2023-04-06T04:10:51;100571.22;;;12.07;82.23
46682;BME280;34101;53.430;-2.224;2023-04-06T04:13:18;100575.18;;;11.81;82.69
46682;BME280;34101;53.430;-2.224;2023-04-06T04:15:45;100570.19;;;11.94;82.69
46682;BME280;34101;53.430;-2.224;2023-04-06T04:18:12;100572.54;;;12.04;81.74
46682;BME280;34101;53.430;-2.224;2023-04-06T04:20:41;100574.80;;;11.72;82.23
46682;BME280;34101;53.430;-2.224;2023-04-06T04:23:08;100577.75;;;11.75;82.99
46682;BME280;34101;53.430;-2.224;2023-04-06T04:25:35;100578.24;;;11.94;82.54
46682;BME280;34101;53.430;-2.224;2023-04-06T04:28:02;100576.60;;;12.02;82.47
46682;BME280;34101;53.430;-2.224;2023-04-06T04:30:29;100577.82;;;12.04;82.18
46682;BME280;34101;53.430;-2.224;2023-04-06T04:32:57;100579.07;;;12.08;82.14
46682;BME280;34101;53.430;-2.224;2023-04-06T04:35:24;100581.12;;;12.05;82.00
46682;BME280;34101;53.430;-2.224;2023-04-06T04:37:51;100581.31;;;12.10;81.82
46682;BME280;34101;53.430;-2.224;2023-04-06T04:40:18;100583.61;;;12.13;81.59
46682;BME280;34101;53.430;-2.224;2023-04-06T04:42:45;100587.03;;;12.02;81.81
46682;BME280;34101;53.430;-2.224;2023-04-06T04:45:13;100585.39;;;12.00;81.84
46682;BME280;34101;53.430;-2.224;2023-04-06T04:47:40;100584.29;;;11.92;82.10
46682;BME280;34101;53.430;-2.224;2023-04-06T04:50:09;100581.40;;;12.01;81.41
46682;BME280;34101;53.430;-2.224;2023-04-06T04:52:37;100577.08;;;11.92;81.95
46682;BME280;34101;53.430;-2.224;2023-04-06T04:55:05;100577.03;;;11.98;81.64
46682;BME280;34101;53.430;-2.224;2023-04-06T04:57:33;100574.21;;;11.98;81.67
46682;BME280;34101;53.430;-2.224;2023-04-06T05:00:00;100567.88;;;11.98;81.57
46682;BME280;34101;53.430;-2.224;2023-04-06T05:02:28;100573.17;;;12.02;81.75
46682;BME280;34101;53.430;-2.224;2023-04-06T05:04:55;100575.78;;;11.99;81.46
46682;BME280;34101;53.430;-2.224;2023-04-06T05:07:23;100575.80;;;11.94;81.28
46682;BME280;34101;53.430;-2.224;2023-04-06T05:09:50;100574.68;;;11.96;81.70
46682;BME280;34101;53.430;-2.224;2023-04-06T05:12:18;100574.30;;;12.00;81.37
46682;BME280;34101;53.430;-2.224;2023-04-06T05:14:45;100575.51;;;12.06;81.05
46682;BME280;34101;53.430;-2.224;2023-04-06T05:17:12;100580.47;;;12.02;80.83
46682;BME280;34101;53.430;-2.224;2023-04-06T05:19:40;100579.85;;;12.00;81.13
46682;BME280;34101;53.430;-2.224;2023-04-06T05:22:07;100579.05;;;12.07;81.53
46682;BME280;34101;53.430;-2.224;2023-04-06T05:24:35;100584.41;;;12.08;80.90
46682;BME280;34101;53.430;-2.224;2023-04-06T05:27:04;100591.49;;;12.09;81.19
46682;BME280;34101;53.430;-2.224;2023-04-06T05:29:37;100593.72;;;12.04;81.29
46682;BME280;34101;53.430;-2.224;2023-04-06T05:32:05;100596.18;;;11.99;80.91
46682;BME280;34101;53.430;-2.224;2023-04-06T05:34:33;100598.67;;;11.94;81.41
46682;BME280;34101;53.430;-2.224;2023-04-06T05:37:00;100593.59;;;11.91;81.02
46682;BME280;34101;53.430;-2.224;2023-04-06T05:39:28;100586.55;;;11.98;81.43
46682;BME280;34101;53.430;-2.224;2023-04-06T05:42:03;100585.13;;;12.05;81.27
46682;BME280;34101;53.430;-2.224;2023-04-06T05:44:31;100589.09;;;12.02;80.46
46682;BME280;34101;53.430;-2.224;2023-04-06T05:46:59;100597.70;;;12.04;80.77
46682;BME280;34101;53.430;-2.224;2023-04-06T05:49:26;100603.50;;;12.10;80.59
46682;BME280;34101;53.430;-2.224;2023-04-06T05:51:55;100606.91;;;12.06;80.33
46682;BME280;34101;53.430;-2.224;2023-04-06T05:54:22;100613.85;;;11.99;80.36
46682;BME280;34101;53.430;-2.224;2023-04-06T05:56:49;100623.48;;;11.97;80.41
46682;BME280;34101;53.430;-2.224;2023-04-06T05:59:17;100626.14;;;11.62;81.39
46682;BME280;34101;53.430;-2.224;2023-04-06T06:01:45;100629.21;;;11.63;81.02
46682;BME280;34101;53.430;-2.224;2023-04-06T06:04:13;100637.22;;;11.59;81.47
46682;BME280;34101;53.430;-2.224;2023-04-06T06:06:41;100644.54;;;11.60;81.09
46682;BME280;34101;53.430;-2.224;2023-04-06T06:09:09;100648.24;;;11.63;81.42
46682;BME280;34101;53.430;-2.224;2023-04-06T06:11:41;100652.91;;;11.57;81.52
46682;BME280;34101;53.430;-2.224;2023-04-06T06:14:08;100656.69;;;11.09;80.89
46682;BME280;34101;53.430;-2.224;2023-04-06T06:16:36;100661.49;;;10.98;81.44
46682;BME280;34101;53.430;-2.224;2023-04-06T06:19:03;100665.50;;;10.98;80.73
46682;BME280;34101;53.430;-2.224;2023-04-06T06:21:32;100664.15;;;10.95;80.46
46682;BME280;34101;53.430;-2.224;2023-04-06T06:23:59;100667.96;;;10.62;81.55
46682;BME280;34101;53.430;-2.224;2023-04-06T06:26:27;100674.66;;;10.92;80.93
46682;BME280;34101;53.430;-2.224;2023-04-06T06:28:54;100680.70;;;10.70;80.46
46682;BME280;34101;53.430;-2.224;2023-04-06T06:31:21;100684.36;;;10.84;80.83
46682;BME280;34101;53.430;-2.224;2023-04-06T06:33:49;100682.39;;;10.67;80.64
46682;BME280;34101;53.430;-2.224;2023-04-06T06:36:16;100682.98;;;10.99;80.57
46682;BME280;34101;53.430;-2.224;2023-04-06T06:38:44;100683.76;;;11.03;79.90
46682;BME280;34101;53.430;-2.224;2023-04-06T06:41:12;100688.27;;;11.03;79.58
46682;BME280;34101;53.430;-2.224;2023-04-06T06:43:40;100691.53;;;11.00;80.31
46682;BME280;34101;53.430;-2.224;2023-04-06T06:46:07;100692.71;;;10.93;79.94
46682;BME280;34101;53.430;-2.224;2023-04-06T06:48:35;100697.67;;;11.03;79.77
46682;BME280;34101;53.430;-2.224;2023-04-06T06:51:03;100699.14;;;10.91;79.79
46682;BME280;34101;53.430;-2.224;2023-04-06T06:53:30;100702.53;;;11.00;79.44
46682;BME280;34101;53.430;-2.224;2023-04-06T06:55:57;100703.66;;;11.07;79.62
46682;BME280;34101;53.430;-2.224;2023-04-06T06:58:25;100708.07;;;10.96;79.12
46682;BME280;34101;53.430;-2.224;2023-04-06T07:00:57;100706.89;;;10.90;78.92
46682;BME280;34101;53.430;-2.224;2023-04-06T07:03:25;100711.46;;;10.90;78.82
46682;BME280;34101;53.430;-2.224;2023-04-06T07:05:52;100709.27;;;10.84;79.45
46682;BME280;34101;53.430;-2.224;2023-04-06T07:08:20;100714.45;;;11.08;79.08
46682;BME280;34101;53.430;-2.224;2023-04-06T07:10:48;100718.43;;;11.05;78.62
46682;BME280;34101;53.430;-2.224;2023-04-06T07:13:15;100717.46;;;10.88;78.56
46682;BME280;34101;53.430;-2.224;2023-04-06T07:15:42;100720.10;;;11.00;77.51
46682;BME280;34101;53.430;-2.224;2023-04-06T07:18:10;100724.62;;;11.12;78.08
46682;BME280;34101;53.430;-2.224;2023-04-06T07:20:37;100723.63;;;11.12;77.06
46682;BME280;34101;53.430;-2.224;2023-04-06T07:23:06;100723.88;;;11.00;77.53
46682;BME280;34101;53.430;-2.224;2023-04-06T07:25:33;100723.68;;;11.00;77.28
46682;BME280;34101;53.430;-2.224;2023-04-06T07:28:01;100726.19;;;10.97;77.80
46682;BME280;34101;53.430;-2.224;2023-04-06T07:30:28;100728.49;;;10.92;77.37
46682;BME280;34101;53.430;-2.224;2023-04-06T07:32:56;100729.81;;;10.98;77.63
46682;BME280;34101;53.430;-2.224;2023-04-06T07:35:24;100724.47;;;10.94;76.14
46682;BME280;34101;53.430;-2.224;2023-04-06T07:37:52;100727.37;;;11.08;76.53
46682;BME280;34101;53.430;-2.224;2023-04-06T07:40:19;100725.79;;;11.18;76.99
46682;BME280;34101;53.430;-2.224;2023-04-06T07:42:47;100729.15;;;11.09;76.26
46682;BME280;34101;53.430;-2.224;2023-04-06T07:45:15;100730.55;;;11.13;76.47
46682;BME280;34101;53.430;-2.224;2023-04-06T07:47:42;100732.66;;;11.18;76.31
46682;BME280;34101;53.430;-2.224;2023-04-06T07:50:10;100727.60;;;11.18;75.68
46682;BME280;34101;53.430;-2.224;2023-04-06T07:52:39;100728.46;;;11.31;76.57
46682;BME280;34101;53.430;-2.224;2023-04-06T07:55:11;100729.85;;;11.36;75.47
46682;BME280;34101;53.430;-2.224;2023-04-06T07:57:44;100730.74;;;11.32;75.37
46682;BME280;34101;53.430;-2.224;2023-04-06T08:00:12;100735.99;;;11.52;74.27
46682;BME280;34101;53.430;-2.224;2023-04-06T08:02:40;100733.00;;;11.79;73.59
46682;BME280;34101;53.430;-2.224;2023-04-06T08:05:07;100733.55;;;11.77;73.46
46682;BME280;34101;53.430;-2.224;2023-04-06T08:07:35;100736.24;;;11.70;72.96
46682;BME280;34101;53.430;-2.224;2023-04-06T08:10:03;100747.19;;;11.70;72.45
46682;BME280;34101;53.430;-2.224;2023-04-06T08:12:32;100751.21;;;11.84;71.69
46682;BME280;34101;53.430;-2.224;2023-04-06T08:15:06;100752.55;;;11.86;71.59
46682;BME280;34101;53.430;-2.224;2023-04-06T08:17:39;100747.59;;;12.05;70.44
46682;BME280;34101;53.430;-2.224;2023-04-06T08:20:07;100745.18;;;12.00;70.20
46682;BME280;34101;53.430;-2.224;2023-04-06T08:22:33;100748.76;;;12.28;69.82
46682;BME280;34101;53.430;-2.224;2023-04-06T08:25:06;100746.75;;;12.26;70.09
46682;BME280;34101;53.430;-2.224;2023-04-06T08:27:35;100747.06;;;12.24;68.43
46682;BME280;34101;53.430;-2.224;2023-04-06T08:30:03;100747.82;;;12.35;68.81
46682;BME280;34101;53.430;-2.224;2023-04-06T08:32:30;100746.80;;;12.40;68.99
46682;BME280;34101;53.430;-2.224;2023-04-06T08:34:57;100744.96;;;12.65;69.03
46682;BME280;34101;53.430;-2.224;2023-04-06T08:37:25;100743.84;;;12.83;68.28
46682;BME280;34101;53.430;-2.224;2023-04-06T08:39:52;100738.87;;;13.02;67.37
46682;BME280;34101;53.430;-2.224;2023-04-06T08:42:21;100736.85;;;13.35;66.09
46682;BME280;34101;53.430;-2.224;2023-04-06T08:44:50;100735.71;;;13.46;65.71
46682;BME280;34101;53.430;-2.224;2023-04-06T08:47:17;100739.27;;;13.68;65.19
46682;BME280;34101;53.430;-2.224;2023-04-06T08:49:45;100736.94;;;13.62;64.51
46682;BME280;34101;53.430;-2.224;2023-04-06T08:52:16;100744.38;;;13.99;63.86
46682;BME280;34101;53.430;-2.224;2023-04-06T08:54:45;100747.76;;;13.58;64.20
46682;BME280;34101;53.430;-2.224;2023-04-06T08:57:12;100746.92;;;13.41;63.57
46682;BME280;34101;53.430;-2.224;2023-04-06T08:59:41;100744.62;;;13.59;62.84
46682;BME280;34101;53.430;-2.224;2023-04-06T09:02:16;100752.97;;;13.86;59.70
46682;BME280;34101;53.430;-2.224;2023-04-06T09:04:46;100751.98;;;14.58;58.46
46682;BME280;34101;53.430;-2.224;2023-04-06T09:07:16;100753.76;;;15.73;55.33
46682;BME280;34101;53.430;-2.224;2023-04-06T09:09:43;100754.48;;;15.69;54.33
46682;BME280;34101;53.430;-2.224;2023-04-06T09:12:10;100758.35;;;15.48;53.97
46682;BME280;34101;53.430;-2.224;2023-04-06T09:14:48;100760.33;;;15.72;52.99
46682;BME280;34101;53.430;-2.224;2023-04-06T09:17:20;100766.89;;;15.93;51.91
46682;BME280;34101;53.430;-2.224;2023-04-06T09:19:48;100761.93;;;16.40;50.54
46682;BME280;34101;53.430;-2.224;2023-04-06T09:22:15;100775.45;;;16.93;49.42
46682;BME280;34101;53.430;-2.224;2023-04-06T09:24:44;100769.98;;;16.54;49.04
46682;BME280;34101;53.430;-2.224;2023-04-06T09:27:12;100761.97;;;16.05;49.61
46682;BME280;34101;53.430;-2.224;2023-04-06T09:29:41;100767.16;;;15.53;50.54
46682;BME280;34101;53.430;-2.224;2023-04-06T09:32:10;100768.64;;;15.95;50.69
46682;BME280;34101;53.430;-2.224;2023-04-06T09:34:38;100767.25;;;15.94;50.52
46682;BME280;34101;53.430;-2.224;2023-04-06T09:37:14;100771.33;;;14.67;52.42
46682;BME280;34101;53.430;-2.224;2023-04-06T09:39:42;100771.98;;;15.62;50.52
46682;BME280;34101;53.430;-2.224;2023-04-06T09:42:09;100770.94;;;16.24;49.15
46682;BME280;34101;53.430;-2.224;2023-04-06T09:44:37;100766.73;;;16.36;48.29
46682;BME280;34101;53.430;-2.224;2023-04-06T09:47:06;100775.60;;;16.83;47.34
46682;BME280;34101;53.430;-2.224;2023-04-06T09:49:34;100766.47;;;16.71;46.00
46682;BME280;34101;53.430;-2.224;2023-04-06T09:52:02;100777.51;;;17.92;44.38
46682;BME280;34101;53.430;-2.224;2023-04-06T09:54:30;100773.28;;;18.66;41.70
46682;BME280;34101;53.430;-2.224;2023-04-06T09:57:11;100763.50;;;18.91;41.56
46682;BME280;34101;53.430;-2.224;2023-04-06T09:59:47;100775.95;;;18.29;41.96
46682;BME280;34101;53.430;-2.224;2023-04-06T10:02:20;100778.68;;;17.62;43.27
46682;BME280;34101;53.430;-2.224;2023-04-06T10:05:01;100773.36;;;18.05;42.00
46682;BME280;34101;53.430;-2.224;2023-04-06T10:07:29;100777.58;;;18.45;41.84
46682;BME280;34101;53.430;-2.224;2023-04-06T10:09:56;100778.94;;;19.03;40.94
46682;BME280;34101;53.430;-2.224;2023-04-06T10:12:25;100782.67;;;17.82;42.74
46682;BME280;34101;53.430;-2.224;2023-04-06T10:14:53;100785.61;;;17.66;43.74
46682;BME280;34101;53.430;-2.224;2023-04-06T10:17:21;100788.16;;;17.71;42.01
46682;BME280;34101;53.430;-2.224;2023-04-06T10:19:51;100796.39;;;16.82;42.33
46682;BME280;34101;53.430;-2.224;2023-04-06T10:22:28;100793.88;;;18.36;40.17
46682;BME280;34101;53.430;-2.224;2023-04-06T10:24:56;100792.99;;;18.06;40.56
46682;BME280;34101;53.430;-2.224;2023-04-06T10:27:31;100794.20;;;18.43;39.86
46682;BME280;34101;53.430;-2.224;2023-04-06T10:30:10;100791.43;;;18.59;38.95
46682;BME280;34101;53.430;-2.224;2023-04-06T10:32:38;100794.92;;;18.72;38.73
46682;BME280;34101;53.430;-2.224;2023-04-06T10:35:08;100798.54;;;19.00;39.42
46682;BME280;34101;53.430;-2.224;2023-04-06T10:37:52;100796.51;;;20.00;37.13
46682;BME280;34101;53.430;-2.224;2023-04-06T10:40:26;100795.45;;;19.85;37.95
46682;BME280;34101;53.430;-2.224;2023-04-06T10:42:55;100799.71;;;20.33;36.60
46682;BME280;34101;53.430;-2.224;2023-04-06T10:45:23;100806.27;;;18.92;37.97
46682;BME280;34101;53.430;-2.224;2023-04-06T10:47:53;100809.99;;;18.91;37.79
46682;BME280;34101;53.430;-2.224;2023-04-06T10:50:21;100812.14;;;18.12;39.28
46682;BME280;34101;53.430;-2.224;2023-04-06T10:52:59;100815.13;;;17.92;40.41
46682;BME280;34101;53.430;-2.224;2023-04-06T10:55:26;100819.47;;;17.94;39.99
46682;BME280;34101;53.430;-2.224;2023-04-06T10:57:54;100828.44;;;17.31;41.92
46682;BME280;34101;53.430;-2.224;2023-04-06T11:00:23;100826.88;;;16.16;44.55
46682;BME280;34101;53.430;-2.224;2023-04-06T11:02:50;100834.95;;;14.88;48.38
46682;BME280;34101;53.430;-2.224;2023-04-06T11:05:18;100836.89;;;16.02;45.94
46682;BME280;34101;53.430;-2.224;2023-04-06T11:07:45;100846.60;;;16.27;45.14
46682;BME280;34101;53.430;-2.224;2023-04-06T11:10:21;100850.65;;;15.79;47.41
46682;BME280;34101;53.430;-2.224;2023-04-06T11:12:53;100850.87;;;15.73;47.33
46682;BME280;34101;53.430;-2.224;2023-04-06T11:15:25;100854.70;;;15.94;47.33
46682;BME280;34101;53.430;-2.224;2023-04-06T11:17:53;100852.58;;;16.13;47.64
46682;BME280;34101;53.430;-2.224;2023-04-06T11:20:20;100849.57;;;17.44;44.40
46682;BME280;34101;53.430;-2.224;2023-04-06T11:22:49;100841.41;;;18.19;40.99
46682;BME280;34101;53.430;-2.224;2023-04-06T11:25:16;100841.56;;;18.59;41.39
46682;BME280;34101;53.430;-2.224;2023-04-06T11:27:44;100844.21;;;17.92;42.13
46682;BME280;34101;53.430;-2.224;2023-04-06T11:30:13;100852.97;;;17.16;45.48
46682;BME280;34101;53.430;-2.224;2023-04-06T11:32:42;100862.79;;;15.95;49.26
46682;BME280;34101;53.430;-2.224;2023-04-06T11:35:13;100867.58;;;16.01;48.53
46682;BME280;34101;53.430;-2.224;2023-04-06T11:37:46;100870.40;;;15.46;48.59
46682;BME280;34101;53.430;-2.224;2023-04-06T11:40:13;100869.16;;;15.05;50.31
46682;BME280;34101;53.430;-2.224;2023-04-06T11:42:41;100865.59;;;15.14;49.60
46682;BME280;34101;53.430;-2.224;2023-04-06T11:45:09;100868.24;;;14.91;50.65
46682;BME280;34101;53.430;-2.224;2023-04-06T11:47:42;100871.22;;;14.79;50.40
46682;BME280;34101;53.430;-2.224;2023-04-06T11:50:11;100867.84;;;14.94;49.76
46682;BME280;34101;53.430;-2.224;2023-04-06T11:52:40;100865.71;;;15.13;49.46
46682;BME280;34101;53.430;-2.224;2023-04-06T11:55:12;100871.41;;;15.39;49.06
46682;BME280;34101;53.430;-2.224;2023-04-06T11:57:43;100869.46;;;15.22;48.67
46682;BME280;34101;53.430;-2.224;2023-04-06T12:00:11;100870.55;;;14.75;50.25
46682;BME280;34101;53.430;-2.224;2023-04-06T12:02:39;100869.17;;;15.27;47.68
46682;BME280;34101;53.430;-2.224;2023-04-06T12:05:07;100872.43;;;15.46;46.73
46682;BME280;34101;53.430;-2.224;2023-04-06T12:07:34;100872.90;;;15.36;46.84
46682;BME280;34101;53.430;-2.224;2023-04-06T12:10:03;100875.47;;;15.37;46.97
46682;BME280;34101;53.430;-2.224;2023-04-06T12:12:31;100876.33;;;15.30;48.01
46682;BME280;34101;53.430;-2.224;2023-04-06T12:14:58;100880.50;;;16.27;45.97
46682;BME280;34101;53.430;-2.224;2023-04-06T12:17:25;100880.05;;;17.17;44.18
46682;BME280;34101;53.430;-2.224;2023-04-06T12:19:53;100880.98;;;17.00;42.97
46682;BME280;34101;53.430;-2.224;2023-04-06T12:22:25;100881.92;;;16.62;43.88
46682;BME280;34101;53.430;-2.224;2023-04-06T12:24:54;100875.26;;;15.90;45.91
46682;BME280;34101;53.430;-2.224;2023-04-06T12:27:21;100885.72;;;15.70;45.65
46682;BME280;34101;53.430;-2.224;2023-04-06T12:29:49;100887.13;;;15.92;44.41
46682;BME280;34101;53.430;-2.224;2023-04-06T12:32:16;100892.76;;;15.28;45.01
46682;BME280;34101;53.430;-2.224;2023-04-06T12:34:44;100890.92;;;14.57;46.93
46682;BME280;34101;53.430;-2.224;2023-04-06T12:37:11;100897.24;;;14.39;47.08
46682;BME280;34101;53.430;-2.224;2023-04-06T12:39:38;100892.59;;;14.18;46.61
46682;BME280;34101;53.430;-2.224;2023-04-06T12:42:06;100897.42;;;14.70;47.31
46682;BME280;34101;53.430;-2.224;2023-04-06T12:44:43;100902.83;;;15.46;46.10
46682;BME280;34101;53.430;-2.224;2023-04-06T12:47:11;100898.23;;;15.17;46.51